createdAt,value
2017-11-09T00:00:43.378Z,66.93
2017-11-09T00:05:51.165Z,67.10
2017-11-09T00:10:52.146Z,56.73
2017-11-09T00:15:53.134Z,72.80
2017-11-09T00:20:54.094Z,60.23
2017-11-09T00:25:55.065Z,65.60
2017-11-09T00:30:56.154Z,69.60
2017-11-09T00:35:57.152Z,65.47
2017-11-09T00:40:58.125Z,65.80
2017-11-09T00:45:59.106Z,72.93
2017-11-09T00:51:00.102Z,77.00
2017-11-09T00:56:01.090Z,59.17
2017-11-09T01:01:02.073Z,61.03
2017-11-09T01:06:03.078Z,76.50
2017-11-09T01:11:04.185Z,68.93
2017-11-09T01:16:06.092Z,62.47
2017-11-09T01:21:07.263Z,62.77
2017-11-09T01:26:08.282Z,64.77
2017-11-09T01:31:09.357Z,58.80
2017-11-09T01:36:11.423Z,79.10
2017-11-09T01:41:12.612Z,64.10
2017-11-09T01:46:13.594Z,60.03
2017-11-09T01:51:14.595Z,59.27
2017-11-09T01:56:15.589Z,57.40
2017-11-09T02:01:17.631Z,61.30
2017-11-09T02:06:18.626Z,60.10
2017-11-09T02:11:19.670Z,63.53
2017-11-09T02:16:21.758Z,52.97
2017-11-09T02:21:23.471Z,61.63
2017-11-09T02:26:25.224Z,66.67
2017-11-09T02:31:26.238Z,58.80
2017-11-09T02:36:27.482Z,55.87
2017-11-09T02:41:28.455Z,56.00
2017-11-09T02:46:29.461Z,51.60
2017-11-09T02:51:30.471Z,53.77
2017-11-09T02:56:31.462Z,52.77
2017-11-09T03:01:33.218Z,46.00
2017-11-09T03:06:34.238Z,37.80
2017-11-09T03:11:35.384Z,42.13
2017-11-09T03:16:36.443Z,34.77
2017-11-09T03:21:37.486Z,39.77
2017-11-09T03:26:39.276Z,34.93
2017-11-09T03:31:41.082Z,43.20
2017-11-09T03:36:42.102Z,39.93
2017-11-09T03:41:43.090Z,43.13
2017-11-09T03:46:44.119Z,36.70
2017-11-09T03:51:45.100Z,32.57
2017-11-09T03:56:46.119Z,43.10
2017-11-09T04:01:47.952Z,36.87
2017-11-09T04:06:49.002Z,37.00
2017-11-09T04:11:50.845Z,35.07
2017-11-09T04:16:52.105Z,34.10
2017-11-09T04:21:53.999Z,36.53
2017-11-09T04:26:55.750Z,31.27
2017-11-09T04:31:56.755Z,30.37
2017-11-09T04:36:58.570Z,38.93
2017-11-09T04:41:59.568Z,35.37
2017-11-09T04:47:00.602Z,33.53
2017-11-09T04:52:01.599Z,40.93
2017-11-09T04:57:02.619Z,40.33
2017-11-09T05:02:03.619Z,36.07
2017-11-09T05:07:04.640Z,35.17
2017-11-09T05:12:05.655Z,37.53
2017-11-09T05:17:06.635Z,35.20
2017-11-09T05:22:08.411Z,33.77
2017-11-09T05:27:09.420Z,35.00
2017-11-09T05:32:10.517Z,35.37
2017-11-09T05:37:11.554Z,31.80
2017-11-09T05:42:12.571Z,34.43
2017-11-09T05:47:14.443Z,35.33
2017-11-09T05:52:15.554Z,33.70
2017-11-09T05:57:16.554Z,34.80
2017-11-09T06:02:18.419Z,36.53
2017-11-09T06:07:19.417Z,29.10
2017-11-09T06:12:20.424Z,34.43
2017-11-09T06:17:22.162Z,31.20
2017-11-09T06:22:23.138Z,33.50
2017-11-09T06:27:24.098Z,30.43
2017-11-09T06:32:25.054Z,25.10
2017-11-09T06:37:26.086Z,38.90
2017-11-09T06:42:27.077Z,31.87
2017-11-09T06:47:28.094Z,33.27
2017-11-09T06:52:29.094Z,52.53
2017-11-09T06:57:30.827Z,31.37
2017-11-09T07:02:32.116Z,37.40
2017-11-09T07:07:33.098Z,37.63
2017-11-09T07:12:34.106Z,44.13
2017-11-09T07:17:35.086Z,35.03
2017-11-09T07:22:36.094Z,41.23
2017-11-09T07:27:38.222Z,38.17
2017-11-09T07:32:39.311Z,50.17
2017-11-09T07:37:40.344Z,41.73
2017-11-09T07:42:41.392Z,38.67
2017-11-09T07:47:42.412Z,39.80
2017-11-09T07:52:43.464Z,36.07
2017-11-09T07:57:44.493Z,42.90
2017-11-09T08:02:45.528Z,37.87
2017-11-09T08:07:46.510Z,38.60
2017-11-09T08:12:47.515Z,40.07
2017-11-09T08:17:48.510Z,42.93
2017-11-09T08:22:49.515Z,42.23
2017-11-09T08:27:57.274Z,40.37
2017-11-09T08:33:00.458Z,36.93
2017-11-09T08:38:01.480Z,30.67
2017-11-09T08:43:02.447Z,43.40
2017-11-09T08:48:03.419Z,40.07
2017-11-09T08:53:04.418Z,42.33
2017-11-09T08:58:05.407Z,39.80
2017-11-09T09:03:07.186Z,32.10
2017-11-09T09:08:08.259Z,30.80
2017-11-09T09:13:09.332Z,34.17
2017-11-09T09:18:10.371Z,32.27
2017-11-09T09:23:12.170Z,36.50
2017-11-09T09:34:03.910Z,38.30
2017-11-09T09:39:12.130Z,25.70
2017-11-09T09:44:14.112Z,25.33
2017-11-09T09:49:16.834Z,30.97
2017-11-09T09:54:18.046Z,27.23
2017-11-09T09:59:20.465Z,36.17
2017-11-09T10:04:21.634Z,25.60
2017-11-09T10:09:26.245Z,26.83
2017-11-09T10:14:27.700Z,34.50
2017-11-09T10:19:31.941Z,29.70
2017-11-09T10:24:32.909Z,34.97
2017-11-09T10:29:33.899Z,33.10
2017-11-09T10:34:35.857Z,36.27
2017-11-09T10:39:36.868Z,35.73
2017-11-09T10:44:37.879Z,30.23
2017-11-09T10:49:39.604Z,34.00
2017-11-09T10:54:45.242Z,30.43
2017-11-09T10:59:46.254Z,42.23
2017-11-09T11:04:54.811Z,40.30
2017-11-09T11:09:56.962Z,39.77
2017-11-09T11:14:57.965Z,46.40
2017-11-09T11:20:00.518Z,29.80
2017-11-09T11:25:01.638Z,28.13
2017-11-09T11:30:02.623Z,40.73
2017-11-09T11:35:03.614Z,46.90
2017-11-09T11:40:07.432Z,39.83
2017-11-09T11:45:08.992Z,39.47
2017-11-09T11:50:10.111Z,43.97
2017-11-09T11:55:11.143Z,39.37
2017-11-09T12:00:12.264Z,42.70
2017-11-09T12:05:15.226Z,38.97
2017-11-09T12:10:18.321Z,45.10
2017-11-09T12:15:21.912Z,38.13
2017-11-09T12:20:23.933Z,39.90
2017-11-09T12:25:27.591Z,53.23
2017-11-09T12:30:29.334Z,38.43
2017-11-09T12:35:30.368Z,45.83
2017-11-09T12:40:32.111Z,50.83
2017-11-09T12:45:33.130Z,44.03
2017-11-09T12:50:34.142Z,37.40
2017-11-09T12:55:35.158Z,45.27
2017-11-09T13:00:36.133Z,41.47
2017-11-09T13:05:37.243Z,50.83
2017-11-09T13:10:38.293Z,50.73
2017-11-09T13:15:39.394Z,63.93
2017-11-09T13:20:41.455Z,44.10
2017-11-09T13:25:42.564Z,49.80
2017-11-09T13:30:43.607Z,47.20
2017-11-09T13:35:45.765Z,46.20
2017-11-09T13:40:46.812Z,49.30
2017-11-09T13:45:47.838Z,48.97
2017-11-09T13:50:48.831Z,47.77
2017-11-09T13:55:49.872Z,47.43
2017-11-09T14:00:53.751Z,44.93
2017-11-09T14:05:56.521Z,53.93
2017-11-09T14:10:57.503Z,49.20
2017-11-09T14:15:59.271Z,49.60
2017-11-09T14:21:00.279Z,43.50
2017-11-09T14:26:01.270Z,46.93
2017-11-09T14:31:02.287Z,51.20
2017-11-09T14:36:03.279Z,52.57
2017-11-09T14:41:04.255Z,44.53
2017-11-09T14:46:05.291Z,50.40
2017-11-09T14:51:06.317Z,68.27
2017-11-09T14:56:07.497Z,58.60
2017-11-09T15:01:08.639Z,57.00
2017-11-09T15:06:09.749Z,51.60
2017-11-09T15:11:11.547Z,63.27
2017-11-09T15:16:12.610Z,87.17
2017-11-09T15:21:13.663Z,80.67
2017-11-09T15:26:14.699Z,56.17
2017-11-09T15:31:16.483Z,58.87
2017-11-09T15:36:20.382Z,60.27
2017-11-09T15:41:21.758Z,71.67
2017-11-09T15:46:23.535Z,65.20
2017-11-09T15:51:24.554Z,56.50
2017-11-09T15:56:25.683Z,58.13
2017-11-09T16:01:27.311Z,86.70
2017-11-09T16:06:29.167Z,66.10
2017-11-09T16:11:30.184Z,57.10
2017-11-09T16:16:31.183Z,83.37
2017-11-09T16:21:32.906Z,64.40
2017-11-09T16:26:36.055Z,75.73
2017-11-09T16:31:38.691Z,65.37
2017-11-09T16:36:41.451Z,64.20
2017-11-09T16:41:43.916Z,65.27
2017-11-09T16:46:46.590Z,61.20
2017-11-09T16:51:47.590Z,58.43
2017-11-09T16:56:48.815Z,93.70
2017-11-09T17:01:49.845Z,69.47
2017-11-09T17:06:51.834Z,72.67
2017-11-09T17:11:54.036Z,70.23
2017-11-09T17:16:57.099Z,55.77
2017-11-09T17:21:58.843Z,54.37
2017-11-09T17:26:59.839Z,58.37
2017-11-09T17:32:00.806Z,59.03
2017-11-09T17:37:01.812Z,57.10
2017-11-09T17:47:31.542Z,60.47
2017-11-09T17:52:32.531Z,65.83
2017-11-09T17:57:33.781Z,61.67
2017-11-09T18:02:34.866Z,75.57
2017-11-09T18:07:35.869Z,66.90
2017-11-09T18:12:37.006Z,51.17
2017-11-09T18:17:38.111Z,100.70
2017-11-09T18:22:44.443Z,61.60
2017-11-09T18:27:51.418Z,67.07
2017-11-09T18:32:56.189Z,75.70
2017-11-09T18:37:57.563Z,69.50
2017-11-09T18:42:58.702Z,68.10
2017-11-09T18:48:00.737Z,65.87
2017-11-09T18:53:01.778Z,90.60
2017-11-09T18:58:02.832Z,66.23
2017-11-09T19:03:04.294Z,71.17
2017-11-09T19:08:05.322Z,72.57
2017-11-09T19:13:07.041Z,64.43
2017-11-09T19:18:08.207Z,185.17
2017-11-09T19:23:11.414Z,295.27
2017-11-09T19:28:18.918Z,100.87
2017-11-09T19:33:19.960Z,256.30
2017-11-09T19:38:20.939Z,190.77
2017-11-09T19:43:22.966Z,118.87
2017-11-09T19:48:26.169Z,99.27
2017-11-09T19:53:27.222Z,69.07
2017-11-09T19:58:28.651Z,64.87
2017-11-09T20:03:29.651Z,65.10
2017-11-09T20:08:30.729Z,71.20
2017-11-09T20:13:31.798Z,64.57
2017-11-09T20:18:33.754Z,131.60
2017-11-09T20:23:34.811Z,117.93
2017-11-09T20:28:36.483Z,73.03
2017-11-09T20:33:40.563Z,71.40
2017-11-09T20:38:42.520Z,72.97
2017-11-09T20:43:43.668Z,60.20
2017-11-09T20:48:44.879Z,60.60
2017-11-09T20:53:46.648Z,66.70
2017-11-09T20:58:47.706Z,65.43
2017-11-09T21:03:48.793Z,56.30
2017-11-09T21:08:49.826Z,58.07
2017-11-09T21:13:50.917Z,53.90
2017-11-09T21:18:53.015Z,59.17
2017-11-09T21:23:54.042Z,62.93
2017-11-09T21:28:55.353Z,57.50
2017-11-09T21:33:56.325Z,49.63
2017-11-09T21:38:58.011Z,45.83
2017-11-09T21:43:59.043Z,47.93
2017-11-09T21:49:00.948Z,48.37
2017-11-09T21:54:01.948Z,38.83
2017-11-09T21:59:02.935Z,50.67
2017-11-09T22:04:03.898Z,50.23
2017-11-09T22:09:04.903Z,51.23
2017-11-09T22:14:05.903Z,55.33
2017-11-09T22:19:07.137Z,46.23
2017-11-09T22:24:08.462Z,51.03
2017-11-09T22:29:09.633Z,58.20
2017-11-09T22:34:11.056Z,55.57
2017-11-09T22:39:12.362Z,50.10
2017-11-09T22:44:13.610Z,47.90
2017-11-09T22:49:14.806Z,52.07
2017-11-09T22:54:15.930Z,50.63
2017-11-09T22:59:17.060Z,46.60
2017-11-09T23:04:18.212Z,46.90
2017-11-09T23:09:19.286Z,45.60
2017-11-09T23:14:20.255Z,49.60
2017-11-09T23:19:21.300Z,46.03
2017-11-09T23:24:22.378Z,54.07
2017-11-09T23:29:23.678Z,48.10
2017-11-09T23:34:24.650Z,51.00
2017-11-09T23:39:25.825Z,49.23
2017-11-09T23:44:26.930Z,53.80
2017-11-09T23:49:28.042Z,61.60
2017-11-09T23:54:29.042Z,47.00
2017-11-09T23:59:30.124Z,51.43
